createdAt,value
2018-09-28T00:01:28.749Z,10.80
2018-09-28T00:03:56.413Z,10.90
2018-09-28T00:06:24.042Z,11.10
2018-09-28T00:08:51.728Z,11.10
2018-09-28T00:11:19.423Z,11.00
2018-09-28T00:13:47.152Z,11.00
2018-09-28T00:16:14.863Z,11.00
2018-09-28T00:18:42.568Z,11.00
2018-09-28T00:21:10.219Z,11.20
2018-09-28T00:23:37.874Z,11.20
2018-09-28T00:26:05.900Z,11.20
2018-09-28T00:28:33.443Z,11.20
2018-09-28T00:31:01.074Z,11.10
2018-09-28T00:33:28.844Z,11.20
2018-09-28T00:35:56.553Z,11.30
2018-09-28T00:38:24.244Z,11.30
2018-09-28T00:40:51.968Z,11.30
2018-09-28T00:43:19.612Z,11.30
2018-09-28T00:45:47.336Z,11.30
2018-09-28T00:48:15.382Z,11.30
2018-09-28T00:50:43.048Z,11.30
2018-09-28T00:53:10.684Z,11.20
2018-09-28T00:55:38.389Z,11.10
2018-09-28T00:58:06.097Z,11.00
2018-09-28T01:00:33.789Z,11.10
2018-09-28T01:03:01.459Z,11.10
2018-09-28T01:05:29.133Z,11.10
2018-09-28T01:07:56.844Z,11.00
2018-09-28T01:10:24.524Z,10.80
2018-09-28T01:12:52.147Z,11.00
2018-09-28T01:15:19.825Z,10.90
2018-09-28T01:17:47.551Z,10.90
2018-09-28T01:20:15.515Z,10.90
2018-09-28T01:22:43.212Z,10.70
2018-09-28T01:25:10.866Z,10.70
2018-09-28T01:27:38.563Z,10.70
2018-09-28T01:30:06.282Z,10.60
2018-09-28T01:32:33.924Z,10.50
2018-09-28T01:35:01.598Z,10.50
2018-09-28T01:37:29.270Z,10.40
2018-09-28T01:39:56.941Z,10.30
2018-09-28T01:42:26.833Z,10.30
2018-09-28T01:44:54.644Z,10.30
2018-09-28T01:47:22.389Z,10.10
2018-09-28T01:49:50.084Z,10.00
2018-09-28T01:52:17.841Z,10.00
2018-09-28T01:54:45.555Z,10.10
2018-09-28T01:57:13.258Z,10.10
2018-09-28T01:59:40.937Z,10.10
2018-09-28T02:02:08.626Z,10.00
2018-09-28T02:04:36.372Z,10.00
2018-09-28T02:07:04.055Z,10.00
2018-09-28T02:09:31.690Z,10.10
2018-09-28T02:11:59.370Z,10.10
2018-09-28T02:14:27.030Z,10.10
2018-09-28T02:16:54.687Z,10.10
2018-09-28T02:19:22.328Z,10.00
2018-09-28T02:21:50.017Z,9.90
2018-09-28T02:24:17.648Z,9.90
2018-09-28T02:26:45.334Z,9.80
2018-09-28T02:29:12.975Z,9.80
2018-09-28T02:31:40.624Z,9.70
2018-09-28T02:34:08.322Z,9.70
2018-09-28T02:36:35.982Z,9.80
2018-09-28T02:39:05.141Z,9.80
2018-09-28T02:41:32.818Z,9.80
2018-09-28T02:44:00.472Z,9.80
2018-09-28T02:46:28.173Z,10.00
2018-09-28T02:48:55.878Z,10.00
2018-09-28T02:51:23.538Z,10.00
2018-09-28T02:53:51.159Z,10.00
2018-09-28T02:56:18.832Z,10.00
2018-09-28T02:58:46.566Z,10.00
2018-09-28T03:01:14.243Z,9.90
2018-09-28T03:03:41.901Z,9.90
2018-09-28T03:06:09.607Z,10.10
2018-09-28T03:08:39.149Z,10.00
2018-09-28T03:11:06.850Z,9.90
2018-09-28T03:13:34.507Z,9.80
2018-09-28T03:16:02.189Z,9.80
2018-09-28T03:18:29.847Z,9.70
2018-09-28T03:20:57.524Z,9.70
2018-09-28T03:23:25.191Z,9.80
2018-09-28T03:25:52.874Z,9.90
2018-09-28T03:28:20.514Z,10.10
2018-09-28T03:30:48.192Z,10.10
2018-09-28T03:33:15.896Z,10.20
2018-09-28T03:35:43.603Z,10.30
2018-09-28T03:38:11.240Z,10.40
2018-09-28T03:40:39.024Z,10.40
2018-09-28T03:43:06.577Z,10.50
2018-09-28T03:45:34.248Z,10.50
2018-09-28T03:48:01.961Z,10.50
2018-09-28T03:50:29.741Z,10.50
2018-09-28T03:52:57.408Z,10.60
2018-09-28T03:55:25.039Z,10.60
2018-09-28T03:57:52.696Z,10.70
2018-09-28T04:00:20.356Z,10.70
2018-09-28T04:02:48.057Z,11.00
2018-09-28T04:05:15.662Z,11.00
2018-09-28T04:07:43.325Z,11.00
2018-09-28T04:10:10.985Z,11.00
2018-09-28T04:12:38.800Z,11.00
2018-09-28T04:17:34.101Z,11.00
2018-09-28T04:20:01.742Z,11.10
2018-09-28T04:22:29.409Z,11.10
2018-09-28T04:24:57.181Z,11.10
2018-09-28T04:27:24.837Z,11.20
2018-09-28T04:29:52.485Z,11.20
2018-09-28T04:32:20.125Z,11.20
2018-09-28T04:34:47.921Z,11.10
2018-09-28T04:37:15.569Z,11.20
2018-09-28T04:39:43.212Z,11.20
2018-09-28T04:42:10.904Z,11.30
2018-09-28T04:44:38.637Z,11.30
2018-09-28T04:47:06.380Z,11.30
2018-09-28T04:49:34.028Z,11.30
2018-09-28T04:52:01.685Z,11.30
2018-09-28T04:54:29.365Z,11.30
2018-09-28T04:56:57.024Z,11.30
2018-09-28T04:59:24.729Z,11.30
2018-09-28T05:01:52.374Z,11.40
2018-09-28T05:04:20.041Z,11.50
2018-09-28T05:06:47.709Z,11.50
2018-09-28T05:09:15.520Z,11.50
2018-09-28T05:11:43.197Z,11.50
2018-09-28T05:14:10.924Z,11.50
2018-09-28T05:16:39.154Z,11.50
2018-09-28T05:19:07.152Z,11.60
2018-09-28T05:21:34.865Z,11.60
2018-09-28T05:24:02.504Z,11.60
2018-09-28T05:26:30.145Z,11.60
2018-09-28T05:28:57.887Z,11.70
2018-09-28T05:31:25.766Z,11.70
2018-09-28T05:33:53.313Z,11.80
2018-09-28T05:36:21.001Z,11.80
2018-09-28T05:38:48.649Z,11.80
2018-09-28T05:41:16.287Z,11.80
2018-09-28T05:43:44.033Z,11.80
2018-09-28T05:46:11.686Z,11.90
2018-09-28T05:48:39.529Z,11.90
2018-09-28T05:51:07.357Z,11.90
2018-09-28T05:53:35.001Z,11.90
2018-09-28T05:56:02.653Z,12.00
2018-09-28T06:01:09.068Z,12.10
2018-09-28T06:03:41.253Z,12.30
2018-09-28T06:06:09.048Z,12.40
2018-09-28T06:08:37.076Z,12.40
2018-09-28T06:11:04.827Z,12.50
2018-09-28T06:13:32.545Z,12.30
2018-09-28T06:16:00.304Z,12.60
2018-09-28T06:20:55.593Z,12.60
2018-09-28T06:23:23.309Z,12.60
2018-09-28T06:25:50.998Z,12.70
2018-09-28T06:28:18.666Z,12.70
2018-09-28T06:30:46.312Z,12.70
2018-09-28T06:33:14.008Z,12.70
2018-09-28T06:38:09.292Z,12.70
2018-09-28T06:40:36.929Z,12.70
2018-09-28T06:45:32.181Z,12.80
2018-09-28T06:47:59.948Z,12.70
2018-09-28T06:50:27.579Z,12.80
2018-09-28T06:52:55.246Z,12.90
2018-09-28T06:55:22.882Z,12.80
2018-09-28T06:57:50.568Z,12.90
2018-09-28T07:00:18.244Z,12.90
2018-09-28T07:02:45.922Z,13.00
2018-09-28T07:05:13.821Z,13.00
2018-09-28T07:07:41.718Z,13.00
2018-09-28T07:10:09.535Z,13.10
2018-09-28T07:12:37.328Z,13.30
2018-09-28T07:15:05.721Z,13.20
2018-09-28T07:20:01.470Z,13.40
2018-09-28T07:22:29.268Z,13.40
2018-09-28T07:24:56.922Z,13.50
2018-09-28T07:27:24.696Z,13.50
2018-09-28T07:29:52.433Z,13.50
2018-09-28T07:32:21.155Z,13.50
2018-09-28T07:34:49.000Z,13.60
2018-09-28T07:37:16.856Z,13.50
2018-09-28T07:39:45.677Z,13.50
2018-09-28T07:42:13.448Z,13.50
2018-09-28T07:44:43.688Z,13.60
2018-09-28T07:47:11.436Z,13.60
2018-09-28T07:49:39.224Z,13.80
2018-09-28T07:52:07.129Z,13.70
2018-09-28T07:54:35.077Z,13.70
2018-09-28T07:57:02.876Z,13.70
2018-09-28T07:59:30.699Z,13.90
2018-09-28T08:01:58.657Z,13.80
2018-09-28T08:04:26.413Z,13.90
2018-09-28T08:06:54.332Z,13.90
2018-09-28T08:09:21.980Z,14.10
2018-09-28T08:14:17.490Z,14.10
2018-09-28T08:16:45.249Z,14.10
2018-09-28T08:24:08.287Z,14.20
2018-09-28T08:29:03.561Z,14.40
2018-09-28T08:31:31.190Z,14.40
2018-09-28T08:33:58.843Z,14.50
2018-09-28T08:36:26.634Z,14.50
2018-09-28T08:38:54.187Z,14.60
2018-09-28T08:41:22.012Z,14.70
2018-09-28T08:43:49.745Z,14.60
2018-09-28T08:48:45.428Z,14.50
2018-09-28T08:51:13.100Z,14.60
2018-09-28T08:53:40.779Z,14.50
2018-09-28T08:56:08.512Z,14.50
2018-09-28T08:58:36.241Z,14.50
2018-09-28T09:01:03.969Z,14.40
2018-09-28T09:03:31.640Z,14.40
2018-09-28T09:05:59.327Z,14.40
2018-09-28T09:08:27.085Z,14.40
2018-09-28T09:10:54.783Z,14.40
2018-09-28T09:13:25.259Z,14.40
2018-09-28T09:15:53.017Z,14.30
2018-09-28T09:18:20.961Z,14.30
2018-09-28T09:20:48.675Z,14.40
2018-09-28T09:23:16.535Z,14.30
2018-09-28T09:25:44.165Z,14.20
2018-09-28T09:28:11.811Z,14.30
2018-09-28T09:30:39.472Z,14.30
2018-09-28T09:33:07.165Z,14.30
2018-09-28T09:35:34.836Z,14.30
2018-09-28T09:38:02.529Z,14.30
2018-09-28T09:40:30.212Z,14.30
2018-09-28T09:42:57.825Z,14.30
2018-09-28T09:45:25.477Z,14.40
2018-09-28T09:47:53.204Z,14.50
2018-09-28T09:50:20.871Z,14.50
2018-09-28T09:55:16.186Z,14.60
2018-09-28T09:57:43.927Z,14.70
2018-09-28T10:02:49.370Z,14.90
2018-09-28T10:05:17.037Z,14.90
2018-09-28T10:07:44.643Z,15.10
2018-09-28T10:10:12.332Z,15.20
2018-09-28T10:12:40.075Z,15.40
2018-09-28T10:15:07.835Z,15.30
2018-09-28T10:17:35.507Z,15.30
2018-09-28T10:20:03.185Z,15.30
2018-09-28T10:24:58.392Z,15.30
2018-09-28T10:27:26.072Z,15.20
2018-09-28T10:32:21.268Z,15.10
2018-09-28T10:34:48.972Z,15.10
2018-09-28T10:37:16.620Z,15.10
2018-09-28T10:39:45.724Z,14.90
2018-09-28T10:42:13.444Z,15.00
2018-09-28T10:44:41.097Z,14.90
2018-09-28T10:47:08.781Z,15.00
2018-09-28T10:52:04.252Z,14.90
2018-09-28T10:54:31.872Z,14.80
2018-09-28T10:56:59.509Z,14.80
2018-09-28T11:01:54.782Z,14.80
2018-09-28T11:04:23.728Z,14.80
2018-09-28T11:06:51.520Z,14.90
2018-09-28T11:09:19.314Z,15.00
2018-09-28T11:11:47.297Z,15.10
2018-09-28T11:14:15.112Z,15.20
2018-09-28T11:16:43.092Z,15.20
2018-09-28T11:19:10.946Z,15.40
2018-09-28T11:21:39.111Z,15.50
2018-09-28T11:24:06.899Z,15.60
2018-09-28T11:26:34.605Z,15.70
2018-09-28T11:29:02.294Z,15.60
2018-09-28T11:31:30.089Z,15.70
2018-09-28T11:33:57.893Z,15.60
2018-09-28T11:36:25.663Z,15.70
2018-09-28T11:38:53.336Z,15.90
2018-09-28T11:41:21.210Z,15.90
2018-09-28T11:43:50.524Z,15.90
2018-09-28T11:46:18.300Z,16.00
2018-09-28T11:48:46.033Z,16.00
2018-09-28T11:51:13.799Z,16.00
2018-09-28T11:58:37.669Z,15.90
2018-09-28T12:01:05.405Z,15.90
2018-09-28T12:03:33.097Z,16.00
2018-09-28T12:06:00.790Z,16.00
2018-09-28T12:08:28.447Z,16.20
2018-09-28T12:10:56.172Z,16.40
2018-09-28T12:15:51.466Z,16.80
2018-09-28T12:18:19.214Z,17.00
2018-09-28T12:20:46.840Z,17.00
2018-09-28T12:23:14.528Z,17.20
2018-09-28T12:25:42.179Z,17.20
2018-09-28T12:30:37.479Z,17.50
2018-09-28T12:33:05.473Z,17.50
2018-09-28T12:35:33.228Z,17.40
2018-09-28T12:38:00.938Z,17.40
2018-09-28T12:40:28.597Z,17.50
2018-09-28T12:45:23.987Z,18.00
2018-09-28T12:47:51.661Z,18.10
2018-09-28T12:50:19.383Z,18.10
2018-09-28T12:52:47.051Z,18.10
2018-09-28T12:55:14.720Z,18.10
2018-09-28T12:57:42.358Z,18.30
2018-09-28T13:02:37.729Z,19.10
2018-09-28T13:05:05.456Z,19.20
2018-09-28T13:07:34.320Z,19.30
2018-09-28T13:12:29.552Z,19.80
2018-09-28T13:14:57.361Z,20.10
2018-09-28T13:24:48.058Z,20.20
2018-09-28T13:37:06.341Z,20.80
2018-09-28T13:42:01.546Z,19.90
2018-09-28T14:01:43.739Z,22.80
2018-09-28T14:04:11.463Z,23.50
2018-09-28T14:06:39.172Z,23.90
2018-09-28T14:09:08.394Z,23.80
2018-09-28T14:11:36.134Z,24.70
2018-09-28T14:14:03.959Z,25.00
2018-09-28T14:16:31.615Z,25.50
2018-09-28T14:18:59.333Z,26.10
2018-09-28T14:21:26.990Z,26.90
2018-09-28T14:23:54.652Z,26.50
2018-09-28T14:26:22.356Z,26.60
2018-09-28T14:28:50.079Z,26.30
2018-09-28T14:31:17.660Z,26.90
2018-09-28T14:33:45.337Z,27.50
2018-09-28T14:36:13.028Z,27.50
2018-09-28T14:38:40.745Z,26.40
2018-09-28T14:41:08.387Z,25.20
2018-09-28T14:43:36.030Z,24.40
2018-09-28T14:46:03.725Z,24.70
2018-09-28T14:53:26.667Z,23.10
2018-09-28T14:55:56.433Z,22.20
2018-09-28T14:58:24.219Z,22.00
2018-09-28T15:00:52.102Z,21.90
2018-09-28T15:03:19.677Z,20.90
2018-09-28T15:05:47.605Z,20.90
2018-09-28T15:08:15.310Z,21.60
2018-09-28T15:10:43.009Z,22.50
2018-09-28T15:13:11.048Z,23.00
2018-09-28T15:15:38.756Z,23.60
2018-09-28T15:18:08.427Z,23.70
2018-09-28T15:20:36.225Z,23.80
2018-09-28T15:23:03.973Z,24.90
2018-09-28T15:25:31.620Z,26.20
2018-09-28T15:50:07.874Z,24.40
2018-09-28T15:52:35.513Z,22.90
2018-09-28T15:55:03.292Z,21.50
2018-09-28T15:57:30.912Z,20.30
2018-09-28T16:04:53.731Z,18.60
2018-09-28T16:07:21.419Z,18.20
2018-09-28T16:09:49.221Z,17.80
2018-09-28T16:12:16.893Z,17.50
2018-09-28T16:14:44.601Z,17.20
2018-09-28T16:17:12.286Z,17.10
2018-09-28T16:19:40.791Z,17.00
2018-09-28T16:24:14.844Z,16.80
2018-09-28T16:26:42.500Z,16.80
2018-09-28T16:29:10.175Z,16.70
2018-09-28T16:31:37.910Z,16.60
